sensor_id;sensor_type;location;lat;lon;timestamp;P1;durP1;ratioP1;P2;durP2;ratioP2
75295;SDS011;64623;44.738;37.804;2024-03-06T00:00:12;19.33;;;14.40;;
75295;SDS011;64623;44.738;37.804;2024-03-06T00:01:16;20.90;;;13.45;;
75295;SDS011;64623;44.738;37.804;2024-03-06T00:02:19;20.33;;;11.63;;
75295;SDS011;64623;44.738;37.804;2024-03-06T00:03:22;18.95;;;12.20;;
75295;SDS011;64623;44.738;37.804;2024-03-06T00:04:25;21.92;;;15.60;;
75295;SDS011;64623;44.738;37.804;2024-03-06T00:05:28;19.90;;;14.98;;
75295;SDS011;64623;44.738;37.804;2024-03-06T00:06:31;19.27;;;12.20;;
75295;SDS011;64623;44.738;37.804;2024-03-06T00:07:34;17.98;;;13.48;;
75295;SDS011;64623;44.738;37.804;2024-03-06T00:08:37;22.83;;;16.80;;
75295;SDS011;64623;44.738;37.804;2024-03-06T00:09:40;30.33;;;17.92;;
75295;SDS011;64623;44.738;37.804;2024-03-06T00:10:43;25.05;;;16.38;;
75295;SDS011;64623;44.738;37.804;2024-03-06T00:11:47;31.70;;;18.35;;
75295;SDS011;64623;44.738;37.804;2024-03-06T00:12:50;24.25;;;17.20;;
75295;SDS011;64623;44.738;37.804;2024-03-06T00:13:53;25.15;;;14.75;;
75295;SDS011;64623;44.738;37.804;2024-03-06T00:14:56;23.50;;;16.25;;
75295;SDS011;64623;44.738;37.804;2024-03-06T00:15:59;19.70;;;14.43;;
75295;SDS011;64623;44.738;37.804;2024-03-06T00:17:02;18.50;;;14.23;;
75295;SDS011;64623;44.738;37.804;2024-03-06T00:18:09;19.95;;;15.05;;
75295;SDS011;64623;44.738;37.804;2024-03-06T00:19:22;20.20;;;13.85;;
75295;SDS011;64623;44.738;37.804;2024-03-06T00:20:26;18.02;;;13.82;;
75295;SDS011;64623;44.738;37.804;2024-03-06T00:21:29;23.95;;;15.63;;
75295;SDS011;64623;44.738;37.804;2024-03-06T00:22:32;18.92;;;13.15;;
75295;SDS011;64623;44.738;37.804;2024-03-06T00:23:35;18.55;;;14.57;;
75295;SDS011;64623;44.738;37.804;2024-03-06T00:24:39;19.02;;;12.45;;
75295;SDS011;64623;44.738;37.804;2024-03-06T00:25:42;18.92;;;13.85;;
75295;SDS011;64623;44.738;37.804;2024-03-06T00:26:45;20.05;;;14.27;;
75295;SDS011;64623;44.738;37.804;2024-03-06T00:27:49;18.30;;;13.68;;
75295;SDS011;64623;44.738;37.804;2024-03-06T00:28:52;17.83;;;14.50;;
75295;SDS011;64623;44.738;37.804;2024-03-06T00:29:55;18.80;;;14.55;;
75295;SDS011;64623;44.738;37.804;2024-03-06T00:30:58;20.88;;;15.10;;
75295;SDS011;64623;44.738;37.804;2024-03-06T00:32:01;22.08;;;15.05;;
75295;SDS011;64623;44.738;37.804;2024-03-06T00:33:04;20.00;;;14.30;;
75295;SDS011;64623;44.738;37.804;2024-03-06T00:34:07;20.08;;;14.25;;
75295;SDS011;64623;44.738;37.804;2024-03-06T00:35:11;20.63;;;14.88;;
75295;SDS011;64623;44.738;37.804;2024-03-06T00:36:14;20.95;;;15.07;;
75295;SDS011;64623;44.738;37.804;2024-03-06T00:37:17;17.95;;;13.63;;
75295;SDS011;64623;44.738;37.804;2024-03-06T00:38:20;19.02;;;14.35;;
75295;SDS011;64623;44.738;37.804;2024-03-06T00:39:23;18.98;;;14.23;;
75295;SDS011;64623;44.738;37.804;2024-03-06T00:40:27;18.48;;;14.07;;
75295;SDS011;64623;44.738;37.804;2024-03-06T00:41:30;16.33;;;13.73;;
75295;SDS011;64623;44.738;37.804;2024-03-06T00:42:33;17.80;;;14.07;;
75295;SDS011;64623;44.738;37.804;2024-03-06T00:43:37;20.15;;;12.90;;
75295;SDS011;64623;44.738;37.804;2024-03-06T00:44:40;20.50;;;14.35;;
75295;SDS011;64623;44.738;37.804;2024-03-06T00:45:43;19.50;;;15.75;;
75295;SDS011;64623;44.738;37.804;2024-03-06T00:46:46;19.05;;;14.02;;
75295;SDS011;64623;44.738;37.804;2024-03-06T00:47:50;19.23;;;12.48;;
75295;SDS011;64623;44.738;37.804;2024-03-06T00:48:52;19.27;;;14.95;;
75295;SDS011;64623;44.738;37.804;2024-03-06T00:49:55;22.50;;;14.57;;
75295;SDS011;64623;44.738;37.804;2024-03-06T00:50:58;21.33;;;16.05;;
75295;SDS011;64623;44.738;37.804;2024-03-06T00:52:02;22.75;;;14.00;;
75295;SDS011;64623;44.738;37.804;2024-03-06T00:53:06;23.50;;;15.85;;
75295;SDS011;64623;44.738;37.804;2024-03-06T00:54:09;21.33;;;15.85;;
75295;SDS011;64623;44.738;37.804;2024-03-06T00:55:12;20.83;;;14.80;;
75295;SDS011;64623;44.738;37.804;2024-03-06T00:56:15;21.40;;;15.93;;
75295;SDS011;64623;44.738;37.804;2024-03-06T00:57:18;21.08;;;14.48;;
75295;SDS011;64623;44.738;37.804;2024-03-06T00:58:21;20.02;;;15.23;;
75295;SDS011;64623;44.738;37.804;2024-03-06T00:59:24;24.00;;;16.75;;
75295;SDS011;64623;44.738;37.804;2024-03-06T01:00:27;20.90;;;15.40;;
75295;SDS011;64623;44.738;37.804;2024-03-06T01:01:31;24.65;;;16.23;;
75295;SDS011;64623;44.738;37.804;2024-03-06T01:02:35;22.13;;;15.15;;
75295;SDS011;64623;44.738;37.804;2024-03-06T01:03:38;27.33;;;16.45;;
75295;SDS011;64623;44.738;37.804;2024-03-06T01:04:41;19.63;;;15.50;;
75295;SDS011;64623;44.738;37.804;2024-03-06T01:05:44;22.33;;;16.13;;
75295;SDS011;64623;44.738;37.804;2024-03-06T01:06:48;20.13;;;15.52;;
75295;SDS011;64623;44.738;37.804;2024-03-06T01:07:52;22.30;;;16.80;;
75295;SDS011;64623;44.738;37.804;2024-03-06T01:08:56;20.38;;;15.05;;
75295;SDS011;64623;44.738;37.804;2024-03-06T01:10:00;19.90;;;14.30;;
75295;SDS011;64623;44.738;37.804;2024-03-06T01:11:03;25.83;;;17.02;;
75295;SDS011;64623;44.738;37.804;2024-03-06T01:12:07;25.90;;;17.90;;
75295;SDS011;64623;44.738;37.804;2024-03-06T01:13:10;30.60;;;18.90;;
75295;SDS011;64623;44.738;37.804;2024-03-06T01:14:13;26.10;;;16.42;;
75295;SDS011;64623;44.738;37.804;2024-03-06T01:15:16;25.70;;;16.40;;
75295;SDS011;64623;44.738;37.804;2024-03-06T01:16:19;22.77;;;16.30;;
75295;SDS011;64623;44.738;37.804;2024-03-06T01:17:22;21.23;;;15.05;;
75295;SDS011;64623;44.738;37.804;2024-03-06T01:18:26;21.20;;;16.20;;
75295;SDS011;64623;44.738;37.804;2024-03-06T01:19:29;24.15;;;17.08;;
75295;SDS011;64623;44.738;37.804;2024-03-06T01:20:32;24.60;;;15.60;;
75295;SDS011;64623;44.738;37.804;2024-03-06T01:21:35;27.23;;;16.98;;
75295;SDS011;64623;44.738;37.804;2024-03-06T01:22:38;22.60;;;16.10;;
75295;SDS011;64623;44.738;37.804;2024-03-06T01:23:41;20.00;;;13.55;;
75295;SDS011;64623;44.738;37.804;2024-03-06T01:24:44;20.77;;;16.08;;
75295;SDS011;64623;44.738;37.804;2024-03-06T01:25:51;19.77;;;15.57;;
75295;SDS011;64623;44.738;37.804;2024-03-06T01:26:54;19.15;;;15.63;;
75295;SDS011;64623;44.738;37.804;2024-03-06T01:27:57;17.15;;;14.90;;
75295;SDS011;64623;44.738;37.804;2024-03-06T01:29:00;19.88;;;14.45;;
75295;SDS011;64623;44.738;37.804;2024-03-06T01:30:04;18.77;;;14.57;;
75295;SDS011;64623;44.738;37.804;2024-03-06T01:31:07;18.00;;;14.45;;
75295;SDS011;64623;44.738;37.804;2024-03-06T01:32:10;22.35;;;15.40;;
75295;SDS011;64623;44.738;37.804;2024-03-06T01:33:13;18.55;;;14.05;;
75295;SDS011;64623;44.738;37.804;2024-03-06T01:34:17;18.17;;;12.27;;
75295;SDS011;64623;44.738;37.804;2024-03-06T01:35:20;20.50;;;13.30;;
75295;SDS011;64623;44.738;37.804;2024-03-06T01:36:23;18.85;;;15.15;;
75295;SDS011;64623;44.738;37.804;2024-03-06T01:37:26;19.77;;;14.85;;
75295;SDS011;64623;44.738;37.804;2024-03-06T01:38:29;20.42;;;15.48;;
75295;SDS011;64623;44.738;37.804;2024-03-06T01:39:32;20.83;;;15.68;;
75295;SDS011;64623;44.738;37.804;2024-03-06T01:40:42;23.52;;;16.63;;
75295;SDS011;64623;44.738;37.804;2024-03-06T01:41:46;20.67;;;14.60;;
75295;SDS011;64623;44.738;37.804;2024-03-06T01:42:50;37.40;;;21.60;;
75295;SDS011;64623;44.738;37.804;2024-03-06T01:43:53;35.35;;;24.17;;
75295;SDS011;64623;44.738;37.804;2024-03-06T01:44:57;34.22;;;22.40;;
75295;SDS011;64623;44.738;37.804;2024-03-06T01:46:00;33.45;;;22.55;;
75295;SDS011;64623;44.738;37.804;2024-03-06T01:47:03;43.63;;;23.25;;
75295;SDS011;64623;44.738;37.804;2024-03-06T01:48:06;47.42;;;25.27;;
75295;SDS011;64623;44.738;37.804;2024-03-06T01:49:14;35.20;;;22.98;;
75295;SDS011;64623;44.738;37.804;2024-03-06T01:50:21;39.17;;;23.77;;
75295;SDS011;64623;44.738;37.804;2024-03-06T01:51:24;43.53;;;23.20;;
75295;SDS011;64623;44.738;37.804;2024-03-06T01:52:27;54.17;;;25.42;;
75295;SDS011;64623;44.738;37.804;2024-03-06T01:53:31;45.70;;;23.58;;
75295;SDS011;64623;44.738;37.804;2024-03-06T01:54:36;47.63;;;24.67;;
75295;SDS011;64623;44.738;37.804;2024-03-06T01:55:39;38.05;;;23.80;;
75295;SDS011;64623;44.738;37.804;2024-03-06T01:56:45;32.55;;;20.05;;
75295;SDS011;64623;44.738;37.804;2024-03-06T01:57:50;26.50;;;17.75;;
75295;SDS011;64623;44.738;37.804;2024-03-06T01:58:53;32.72;;;20.40;;
75295;SDS011;64623;44.738;37.804;2024-03-06T01:59:58;31.08;;;19.95;;
75295;SDS011;64623;44.738;37.804;2024-03-06T02:01:01;37.13;;;20.20;;
75295;SDS011;64623;44.738;37.804;2024-03-06T02:02:05;44.53;;;21.70;;
75295;SDS011;64623;44.738;37.804;2024-03-06T02:03:10;45.22;;;19.95;;
75295;SDS011;64623;44.738;37.804;2024-03-06T02:04:14;49.50;;;21.95;;
75295;SDS011;64623;44.738;37.804;2024-03-06T02:05:17;58.30;;;25.25;;
75295;SDS011;64623;44.738;37.804;2024-03-06T02:06:20;59.20;;;24.02;;
75295;SDS011;64623;44.738;37.804;2024-03-06T02:07:24;51.33;;;22.75;;
75295;SDS011;64623;44.738;37.804;2024-03-06T02:08:27;53.83;;;23.73;;
75295;SDS011;64623;44.738;37.804;2024-03-06T02:09:30;51.90;;;21.58;;
75295;SDS011;64623;44.738;37.804;2024-03-06T02:10:33;46.38;;;19.55;;
75295;SDS011;64623;44.738;37.804;2024-03-06T02:11:36;63.25;;;23.08;;
75295;SDS011;64623;44.738;37.804;2024-03-06T02:12:39;57.78;;;23.80;;
75295;SDS011;64623;44.738;37.804;2024-03-06T02:13:43;56.72;;;23.73;;
75295;SDS011;64623;44.738;37.804;2024-03-06T02:14:46;53.45;;;21.73;;
75295;SDS011;64623;44.738;37.804;2024-03-06T02:15:50;61.85;;;23.52;;
75295;SDS011;64623;44.738;37.804;2024-03-06T02:16:53;52.80;;;22.77;;
75295;SDS011;64623;44.738;37.804;2024-03-06T02:17:56;59.05;;;21.92;;
75295;SDS011;64623;44.738;37.804;2024-03-06T02:18:59;64.93;;;23.52;;
75295;SDS011;64623;44.738;37.804;2024-03-06T02:20:02;43.40;;;23.73;;
75295;SDS011;64623;44.738;37.804;2024-03-06T02:21:08;46.63;;;24.55;;
75295;SDS011;64623;44.738;37.804;2024-03-06T02:22:11;50.90;;;23.05;;
75295;SDS011;64623;44.738;37.804;2024-03-06T02:23:14;46.15;;;22.77;;
75295;SDS011;64623;44.738;37.804;2024-03-06T02:24:17;42.75;;;20.88;;
75295;SDS011;64623;44.738;37.804;2024-03-06T02:25:20;49.67;;;22.48;;
75295;SDS011;64623;44.738;37.804;2024-03-06T02:26:23;47.15;;;21.42;;
75295;SDS011;64623;44.738;37.804;2024-03-06T02:27:26;48.95;;;21.92;;
75295;SDS011;64623;44.738;37.804;2024-03-06T02:28:29;42.63;;;22.27;;
75295;SDS011;64623;44.738;37.804;2024-03-06T02:29:32;39.90;;;22.15;;
75295;SDS011;64623;44.738;37.804;2024-03-06T02:30:35;39.17;;;19.98;;
75295;SDS011;64623;44.738;37.804;2024-03-06T02:31:39;43.25;;;21.08;;
75295;SDS011;64623;44.738;37.804;2024-03-06T02:32:42;42.05;;;21.15;;
75295;SDS011;64623;44.738;37.804;2024-03-06T02:33:46;44.22;;;20.88;;
75295;SDS011;64623;44.738;37.804;2024-03-06T02:34:50;35.22;;;20.33;;
75295;SDS011;64623;44.738;37.804;2024-03-06T02:35:53;32.75;;;18.70;;
75295;SDS011;64623;44.738;37.804;2024-03-06T02:36:56;39.53;;;17.98;;
75295;SDS011;64623;44.738;37.804;2024-03-06T02:38:00;40.42;;;20.85;;
75295;SDS011;64623;44.738;37.804;2024-03-06T02:39:03;41.60;;;20.98;;
75295;SDS011;64623;44.738;37.804;2024-03-06T02:40:11;36.50;;;20.73;;
75295;SDS011;64623;44.738;37.804;2024-03-06T02:41:14;35.47;;;19.77;;
75295;SDS011;64623;44.738;37.804;2024-03-06T02:42:18;29.92;;;17.17;;
75295;SDS011;64623;44.738;37.804;2024-03-06T02:43:21;27.63;;;15.52;;
75295;SDS011;64623;44.738;37.804;2024-03-06T02:44:24;24.88;;;14.88;;
75295;SDS011;64623;44.738;37.804;2024-03-06T02:45:27;23.58;;;14.48;;
75295;SDS011;64623;44.738;37.804;2024-03-06T02:46:30;16.88;;;10.18;;
75295;SDS011;64623;44.738;37.804;2024-03-06T02:47:33;15.85;;;11.07;;
75295;SDS011;64623;44.738;37.804;2024-03-06T02:48:36;15.10;;;11.07;;
75295;SDS011;64623;44.738;37.804;2024-03-06T02:49:39;14.88;;;10.77;;
75295;SDS011;64623;44.738;37.804;2024-03-06T02:50:42;16.13;;;12.27;;
75295;SDS011;64623;44.738;37.804;2024-03-06T02:51:45;17.48;;;13.48;;
75295;SDS011;64623;44.738;37.804;2024-03-06T02:52:48;20.95;;;15.32;;
75295;SDS011;64623;44.738;37.804;2024-03-06T02:53:53;18.15;;;13.88;;
75295;SDS011;64623;44.738;37.804;2024-03-06T02:54:57;23.15;;;17.25;;
75295;SDS011;64623;44.738;37.804;2024-03-06T02:55:59;37.35;;;24.67;;
75295;SDS011;64623;44.738;37.804;2024-03-06T02:57:02;58.65;;;35.83;;
75295;SDS011;64623;44.738;37.804;2024-03-06T02:58:05;51.30;;;32.05;;
75295;SDS011;64623;44.738;37.804;2024-03-06T02:59:08;41.75;;;25.65;;
75295;SDS011;64623;44.738;37.804;2024-03-06T03:00:11;46.78;;;29.55;;
75295;SDS011;64623;44.738;37.804;2024-03-06T03:01:15;45.35;;;28.02;;
75295;SDS011;64623;44.738;37.804;2024-03-06T03:02:18;36.70;;;24.02;;
75295;SDS011;64623;44.738;37.804;2024-03-06T03:03:21;42.97;;;26.90;;
75295;SDS011;64623;44.738;37.804;2024-03-06T03:04:24;35.88;;;23.33;;
75295;SDS011;64623;44.738;37.804;2024-03-06T03:05:28;30.13;;;22.75;;
75295;SDS011;64623;44.738;37.804;2024-03-06T03:06:31;28.08;;;18.95;;
75295;SDS011;64623;44.738;37.804;2024-03-06T03:07:34;27.05;;;18.92;;
75295;SDS011;64623;44.738;37.804;2024-03-06T03:08:38;33.85;;;20.15;;
75295;SDS011;64623;44.738;37.804;2024-03-06T03:09:42;37.00;;;27.38;;
75295;SDS011;64623;44.738;37.804;2024-03-06T03:10:45;37.83;;;27.13;;
75295;SDS011;64623;44.738;37.804;2024-03-06T03:11:48;32.30;;;26.13;;
75295;SDS011;64623;44.738;37.804;2024-03-06T03:12:52;38.13;;;26.17;;
75295;SDS011;64623;44.738;37.804;2024-03-06T03:13:56;63.60;;;43.70;;
75295;SDS011;64623;44.738;37.804;2024-03-06T03:14:59;67.63;;;45.78;;
75295;SDS011;64623;44.738;37.804;2024-03-06T03:16:04;56.95;;;39.17;;
75295;SDS011;64623;44.738;37.804;2024-03-06T03:17:08;43.90;;;32.80;;
75295;SDS011;64623;44.738;37.804;2024-03-06T03:18:11;37.13;;;28.80;;
75295;SDS011;64623;44.738;37.804;2024-03-06T03:19:15;36.47;;;26.58;;
75295;SDS011;64623;44.738;37.804;2024-03-06T03:20:18;37.40;;;28.88;;
75295;SDS011;64623;44.738;37.804;2024-03-06T03:21:21;45.65;;;32.20;;
75295;SDS011;64623;44.738;37.804;2024-03-06T03:22:24;39.30;;;28.60;;
75295;SDS011;64623;44.738;37.804;2024-03-06T03:23:27;35.75;;;25.30;;
75295;SDS011;64623;44.738;37.804;2024-03-06T03:24:31;32.42;;;23.60;;
75295;SDS011;64623;44.738;37.804;2024-03-06T03:25:34;34.22;;;26.08;;
75295;SDS011;64623;44.738;37.804;2024-03-06T03:26:36;32.47;;;23.83;;
75295;SDS011;64623;44.738;37.804;2024-03-06T03:27:40;31.55;;;23.05;;
75295;SDS011;64623;44.738;37.804;2024-03-06T03:28:43;33.15;;;22.48;;
75295;SDS011;64623;44.738;37.804;2024-03-06T03:29:46;32.28;;;23.73;;
75295;SDS011;64623;44.738;37.804;2024-03-06T03:30:49;33.22;;;22.55;;
75295;SDS011;64623;44.738;37.804;2024-03-06T03:31:52;29.90;;;22.90;;
75295;SDS011;64623;44.738;37.804;2024-03-06T03:32:55;29.95;;;21.55;;
75295;SDS011;64623;44.738;37.804;2024-03-06T03:33:58;30.45;;;21.38;;
75295;SDS011;64623;44.738;37.804;2024-03-06T03:35:01;28.95;;;19.58;;
75295;SDS011;64623;44.738;37.804;2024-03-06T03:36:06;28.77;;;21.58;;
75295;SDS011;64623;44.738;37.804;2024-03-06T03:37:09;30.13;;;21.55;;
75295;SDS011;64623;44.738;37.804;2024-03-06T03:38:12;30.13;;;21.05;;
75295;SDS011;64623;44.738;37.804;2024-03-06T03:39:15;29.73;;;18.60;;
75295;SDS011;64623;44.738;37.804;2024-03-06T03:40:18;32.40;;;21.23;;
75295;SDS011;64623;44.738;37.804;2024-03-06T03:41:21;28.95;;;20.73;;
75295;SDS011;64623;44.738;37.804;2024-03-06T03:42:25;26.17;;;18.92;;
75295;SDS011;64623;44.738;37.804;2024-03-06T03:43:28;29.60;;;19.77;;
75295;SDS011;64623;44.738;37.804;2024-03-06T03:44:31;29.50;;;20.60;;
75295;SDS011;64623;44.738;37.804;2024-03-06T03:45:34;26.67;;;19.35;;
75295;SDS011;64623;44.738;37.804;2024-03-06T03:46:38;26.73;;;19.42;;
75295;SDS011;64623;44.738;37.804;2024-03-06T03:47:41;29.35;;;21.55;;
75295;SDS011;64623;44.738;37.804;2024-03-06T03:48:45;29.60;;;20.02;;
75295;SDS011;64623;44.738;37.804;2024-03-06T03:49:48;26.73;;;17.52;;
75295;SDS011;64623;44.738;37.804;2024-03-06T03:50:57;25.90;;;16.13;;
75295;SDS011;64623;44.738;37.804;2024-03-06T03:52:01;31.83;;;20.40;;
75295;SDS011;64623;44.738;37.804;2024-03-06T03:53:04;30.88;;;20.60;;
75295;SDS011;64623;44.738;37.804;2024-03-06T03:54:07;27.33;;;19.20;;
75295;SDS011;64623;44.738;37.804;2024-03-06T03:55:10;30.17;;;21.45;;
75295;SDS011;64623;44.738;37.804;2024-03-06T03:56:13;27.88;;;18.02;;
75295;SDS011;64623;44.738;37.804;2024-03-06T03:57:16;27.48;;;19.02;;
75295;SDS011;64623;44.738;37.804;2024-03-06T03:58:19;29.77;;;20.40;;
75295;SDS011;64623;44.738;37.804;2024-03-06T03:59:22;26.15;;;19.25;;
75295;SDS011;64623;44.738;37.804;2024-03-06T04:00:25;33.53;;;22.20;;
75295;SDS011;64623;44.738;37.804;2024-03-06T04:01:28;32.35;;;20.58;;
75295;SDS011;64623;44.738;37.804;2024-03-06T04:02:31;29.30;;;21.42;;
75295;SDS011;64623;44.738;37.804;2024-03-06T04:03:34;28.95;;;19.42;;
75295;SDS011;64623;44.738;37.804;2024-03-06T04:04:38;31.55;;;23.38;;
75295;SDS011;64623;44.738;37.804;2024-03-06T04:05:42;29.48;;;21.85;;
75295;SDS011;64623;44.738;37.804;2024-03-06T04:06:45;28.27;;;19.38;;
75295;SDS011;64623;44.738;37.804;2024-03-06T04:07:48;25.55;;;17.77;;
75295;SDS011;64623;44.738;37.804;2024-03-06T04:08:51;24.92;;;17.48;;
75295;SDS011;64623;44.738;37.804;2024-03-06T04:09:54;22.15;;;16.30;;
75295;SDS011;64623;44.738;37.804;2024-03-06T04:10:57;20.88;;;16.30;;
75295;SDS011;64623;44.738;37.804;2024-03-06T04:12:00;23.90;;;14.88;;
75295;SDS011;64623;44.738;37.804;2024-03-06T04:13:03;24.45;;;16.60;;
75295;SDS011;64623;44.738;37.804;2024-03-06T04:14:06;28.45;;;18.88;;
75295;SDS011;64623;44.738;37.804;2024-03-06T04:15:10;25.67;;;16.98;;
75295;SDS011;64623;44.738;37.804;2024-03-06T04:16:17;25.20;;;17.52;;
75295;SDS011;64623;44.738;37.804;2024-03-06T04:17:20;23.45;;;16.23;;
75295;SDS011;64623;44.738;37.804;2024-03-06T04:18:23;25.23;;;16.75;;
75295;SDS011;64623;44.738;37.804;2024-03-06T04:19:26;23.13;;;14.57;;
75295;SDS011;64623;44.738;37.804;2024-03-06T04:20:29;30.27;;;14.77;;
75295;SDS011;64623;44.738;37.804;2024-03-06T04:21:32;21.50;;;15.40;;
75295;SDS011;64623;44.738;37.804;2024-03-06T04:22:35;20.27;;;13.55;;
75295;SDS011;64623;44.738;37.804;2024-03-06T04:23:38;19.88;;;13.82;;
75295;SDS011;64623;44.738;37.804;2024-03-06T04:24:41;21.40;;;14.80;;
75295;SDS011;64623;44.738;37.804;2024-03-06T04:25:45;20.95;;;14.18;;
75295;SDS011;64623;44.738;37.804;2024-03-06T04:26:48;18.73;;;14.25;;
75295;SDS011;64623;44.738;37.804;2024-03-06T04:27:51;20.40;;;14.55;;
75295;SDS011;64623;44.738;37.804;2024-03-06T04:28:54;20.80;;;12.88;;
75295;SDS011;64623;44.738;37.804;2024-03-06T04:29:57;17.90;;;14.07;;
75295;SDS011;64623;44.738;37.804;2024-03-06T04:31:00;19.40;;;15.07;;
75295;SDS011;64623;44.738;37.804;2024-03-06T04:32:03;18.50;;;13.82;;
75295;SDS011;64623;44.738;37.804;2024-03-06T04:33:10;20.30;;;13.20;;
75295;SDS011;64623;44.738;37.804;2024-03-06T04:34:16;19.67;;;14.25;;
75295;SDS011;64623;44.738;37.804;2024-03-06T04:35:19;19.92;;;14.50;;
75295;SDS011;64623;44.738;37.804;2024-03-06T04:36:22;21.25;;;15.55;;
75295;SDS011;64623;44.738;37.804;2024-03-06T04:37:25;20.75;;;16.27;;
75295;SDS011;64623;44.738;37.804;2024-03-06T04:38:29;22.10;;;16.98;;
75295;SDS011;64623;44.738;37.804;2024-03-06T04:39:32;24.20;;;17.25;;
75295;SDS011;64623;44.738;37.804;2024-03-06T04:40:35;20.25;;;15.05;;
75295;SDS011;64623;44.738;37.804;2024-03-06T04:41:38;19.10;;;15.18;;
75295;SDS011;64623;44.738;37.804;2024-03-06T04:42:41;21.73;;;16.70;;
75295;SDS011;64623;44.738;37.804;2024-03-06T04:43:44;22.33;;;17.63;;
75295;SDS011;64623;44.738;37.804;2024-03-06T04:44:47;20.65;;;14.88;;
75295;SDS011;64623;44.738;37.804;2024-03-06T04:45:50;22.15;;;15.30;;
75295;SDS011;64623;44.738;37.804;2024-03-06T04:46:53;20.20;;;15.88;;
75295;SDS011;64623;44.738;37.804;2024-03-06T04:47:56;20.08;;;15.38;;
75295;SDS011;64623;44.738;37.804;2024-03-06T04:49:00;21.10;;;14.90;;
75295;SDS011;64623;44.738;37.804;2024-03-06T04:50:07;22.17;;;16.50;;
75295;SDS011;64623;44.738;37.804;2024-03-06T04:51:14;21.75;;;13.10;;
75295;SDS011;64623;44.738;37.804;2024-03-06T04:52:17;23.10;;;16.63;;
75295;SDS011;64623;44.738;37.804;2024-03-06T04:53:21;20.88;;;15.55;;
75295;SDS011;64623;44.738;37.804;2024-03-06T04:54:24;23.10;;;16.80;;
75295;SDS011;64623;44.738;37.804;2024-03-06T04:55:26;20.23;;;16.63;;
75295;SDS011;64623;44.738;37.804;2024-03-06T04:56:29;21.67;;;15.20;;
75295;SDS011;64623;44.738;37.804;2024-03-06T04:57:32;20.88;;;15.77;;
75295;SDS011;64623;44.738;37.804;2024-03-06T04:58:36;23.38;;;16.15;;
75295;SDS011;64623;44.738;37.804;2024-03-06T04:59:39;21.33;;;16.02;;
75295;SDS011;64623;44.738;37.804;2024-03-06T05:00:42;19.73;;;15.02;;
75295;SDS011;64623;44.738;37.804;2024-03-06T05:01:45;20.15;;;15.88;;
75295;SDS011;64623;44.738;37.804;2024-03-06T05:02:48;21.77;;;14.65;;
75295;SDS011;64623;44.738;37.804;2024-03-06T05:04:09;17.50;;;13.15;;
75295;SDS011;64623;44.738;37.804;2024-03-06T05:08:05;16.92;;;12.05;;
75295;SDS011;64623;44.738;37.804;2024-03-06T05:09:26;15.60;;;12.45;;
75295;SDS011;64623;44.738;37.804;2024-03-06T05:10:47;18.55;;;13.10;;
75295;SDS011;64623;44.738;37.804;2024-03-06T05:13:27;18.23;;;15.15;;
75295;SDS011;64623;44.738;37.804;2024-03-06T05:14:48;20.40;;;12.63;;
75295;SDS011;64623;44.738;37.804;2024-03-06T05:20:24;17.23;;;10.25;;
75295;SDS011;64623;44.738;37.804;2024-03-06T05:21:44;18.30;;;14.27;;
75295;SDS011;64623;44.738;37.804;2024-03-06T05:24:24;17.65;;;13.23;;
75295;SDS011;64623;44.738;37.804;2024-03-06T05:27:04;15.65;;;10.68;;
75295;SDS011;64623;44.738;37.804;2024-03-06T05:29:44;16.10;;;9.95;;
75295;SDS011;64623;44.738;37.804;2024-03-06T05:31:17;22.55;;;13.60;;
75295;SDS011;64623;44.738;37.804;2024-03-06T05:32:38;30.05;;;14.10;;
75295;SDS011;64623;44.738;37.804;2024-03-06T05:33:58;27.00;;;17.40;;
75295;SDS011;64623;44.738;37.804;2024-03-06T05:35:20;17.27;;;13.07;;
75295;SDS011;64623;44.738;37.804;2024-03-06T05:36:40;16.77;;;12.48;;
75295;SDS011;64623;44.738;37.804;2024-03-06T05:38:00;17.17;;;13.50;;
75295;SDS011;64623;44.738;37.804;2024-03-06T05:40:40;15.13;;;10.45;;
75295;SDS011;64623;44.738;37.804;2024-03-06T05:42:04;15.57;;;12.43;;
75295;SDS011;64623;44.738;37.804;2024-03-06T05:43:25;18.70;;;12.40;;
75295;SDS011;64623;44.738;37.804;2024-03-06T05:48:59;16.65;;;11.13;;
75295;SDS011;64623;44.738;37.804;2024-03-06T05:50:21;16.15;;;11.32;;
75295;SDS011;64623;44.738;37.804;2024-03-06T05:51:42;16.08;;;11.35;;
75295;SDS011;64623;44.738;37.804;2024-03-06T05:53:02;17.13;;;11.48;;
75295;SDS011;64623;44.738;37.804;2024-03-06T05:54:23;15.23;;;11.38;;
75295;SDS011;64623;44.738;37.804;2024-03-06T05:55:44;16.73;;;12.40;;
75295;SDS011;64623;44.738;37.804;2024-03-06T06:02:39;13.40;;;11.10;;
75295;SDS011;64623;44.738;37.804;2024-03-06T06:03:42;15.90;;;9.98;;
75295;SDS011;64623;44.738;37.804;2024-03-06T06:04:45;17.40;;;11.05;;
75295;SDS011;64623;44.738;37.804;2024-03-06T06:05:48;14.95;;;9.90;;
75295;SDS011;64623;44.738;37.804;2024-03-06T06:06:51;17.42;;;12.00;;
75295;SDS011;64623;44.738;37.804;2024-03-06T06:07:54;16.77;;;12.52;;
75295;SDS011;64623;44.738;37.804;2024-03-06T06:08:57;15.10;;;11.35;;
75295;SDS011;64623;44.738;37.804;2024-03-06T06:10:00;13.48;;;11.38;;
75295;SDS011;64623;44.738;37.804;2024-03-06T06:11:04;14.43;;;11.57;;
75295;SDS011;64623;44.738;37.804;2024-03-06T06:12:07;15.85;;;10.85;;
75295;SDS011;64623;44.738;37.804;2024-03-06T06:13:11;16.33;;;12.25;;
75295;SDS011;64623;44.738;37.804;2024-03-06T06:14:14;17.25;;;12.65;;
75295;SDS011;64623;44.738;37.804;2024-03-06T06:15:17;18.08;;;13.07;;
75295;SDS011;64623;44.738;37.804;2024-03-06T06:16:20;17.17;;;12.70;;
75295;SDS011;64623;44.738;37.804;2024-03-06T06:17:24;16.55;;;13.38;;
75295;SDS011;64623;44.738;37.804;2024-03-06T06:18:27;16.42;;;13.65;;
75295;SDS011;64623;44.738;37.804;2024-03-06T06:19:30;14.38;;;12.35;;
75295;SDS011;64623;44.738;37.804;2024-03-06T06:20:33;16.60;;;12.50;;
75295;SDS011;64623;44.738;37.804;2024-03-06T06:21:36;18.70;;;13.55;;
75295;SDS011;64623;44.738;37.804;2024-03-06T06:22:40;16.90;;;12.13;;
75295;SDS011;64623;44.738;37.804;2024-03-06T06:23:46;17.70;;;14.15;;
75295;SDS011;64623;44.738;37.804;2024-03-06T06:24:49;21.17;;;13.85;;
75295;SDS011;64623;44.738;37.804;2024-03-06T06:25:53;22.60;;;12.60;;
75295;SDS011;64623;44.738;37.804;2024-03-06T06:26:56;17.17;;;14.25;;
75295;SDS011;64623;44.738;37.804;2024-03-06T06:28:00;18.42;;;12.40;;
75295;SDS011;64623;44.738;37.804;2024-03-06T06:29:03;19.27;;;11.60;;
75295;SDS011;64623;44.738;37.804;2024-03-06T06:30:06;20.45;;;11.73;;
75295;SDS011;64623;44.738;37.804;2024-03-06T06:32:16;15.85;;;10.98;;
75295;SDS011;64623;44.738;37.804;2024-03-06T06:33:21;19.50;;;13.50;;
75295;SDS011;64623;44.738;37.804;2024-03-06T06:34:24;17.02;;;13.18;;
75295;SDS011;64623;44.738;37.804;2024-03-06T06:35:30;20.40;;;13.23;;
75295;SDS011;64623;44.738;37.804;2024-03-06T06:43:07;18.55;;;12.07;;
75295;SDS011;64623;44.738;37.804;2024-03-06T06:44:10;16.88;;;10.75;;